Time;durP1;ratioP1;P1;durP2;ratioP2;P2;SDS_P1;SDS_P2;PMS_P1;PMS_P2;Temp;Humidity;BMP_temperature;BMP_pressure;BME280_temperature;BME280_humidity;BME280_pressure;Samples;Min_cycle;Max_cycle;Signal;HPM_P1;HPM_P2
2022/04/03 00:03:51;;;;;;;5.78;5.10;;;;;;;3.48;55.36;100447.97;10217132;28;20109;-59
2022/04/03 00:08:55;;;;;;;5.05;4.55;;;;;;;3.35;56.04;100435.41;10209206;28;20125;-60
2022/04/03 00:13:56;;;;;;;6.20;4.72;;;;;;;3.49;56.09;100455.78;10220101;28;20138;-59
2022/04/03 00:18:58;;;;;;;5.97;4.63;;;;;;;3.42;55.68;100445.63;10224132;28;20804;-58
2022/04/03 00:24:00;;;;;;;5.78;5.07;;;;;;;3.47;56.06;100452.38;10224021;28;20055;-59
2022/04/03 00:29:02;;;;;;;5.75;5.05;;;;;;;3.48;56.01;100454.09;10224705;28;20135;-58
2022/04/03 00:34:04;;;;;;;6.50;5.43;;;;;;;3.43;56.11;100449.97;10225643;28;20055;-59
2022/04/03 00:39:06;;;;;;;5.68;4.78;;;;;;;3.41;55.93;100460.56;10221986;28;20136;-59
2022/04/03 00:44:07;;;;;;;5.20;4.60;;;;;;;3.20;55.51;100430.88;10223515;28;20046;-60
2022/04/03 00:49:09;;;;;;;5.75;4.95;;;;;;;3.46;55.27;100465.63;10223903;28;20071;-61
2022/04/03 00:54:11;;;;;;;5.25;4.78;;;;;;;3.39;55.27;100465.03;10220530;28;20078;-59
2022/04/03 00:59:14;;;;;;;5.00;4.45;;;;;;;3.36;55.27;100460.78;10222123;28;20134;-60
2022/04/03 01:04:15;;;;;;;4.78;4.32;;;;;;;3.23;55.18;100450.88;10225398;28;20137;-60
2022/04/03 01:09:17;;;;;;;5.38;4.65;;;;;;;3.31;55.27;100448.78;10222503;28;20130;-60
2022/04/03 01:14:36;;;;;;;5.10;4.60;;;;;;;3.21;54.87;100435.19;10221688;28;20137;-59
2022/04/03 01:19:38;;;;;;;6.90;5.10;;;;;;;3.35;54.86;100463.50;10215737;28;20126;-59
2022/04/03 01:24:43;;;;;;;5.80;4.78;;;;;;;3.21;55.30;100473.81;10217466;28;20134;-58
2022/04/03 01:29:45;;;;;;;;;;;;;;;3.05;55.49;100474.50;10215783;28;20129;-59
2022/04/03 01:34:46;;;;;;;4.55;4.15;;;;;;;2.90;55.94;100456.78;10216358;28;19930;-59
2022/04/03 01:39:48;;;;;;;5.38;4.55;;;;;;;2.99;55.91;100482.69;10217844;28;20126;-59
2022/04/03 01:44:49;;;;;;;5.03;4.07;;;;;;;2.95;55.40;100481.13;10216618;28;20153;-57
2022/04/03 01:49:51;;;;;;;4.22;3.83;;;;;;;2.92;55.40;100481.25;10192542;23;20180;-58
2022/04/03 01:54:52;;;;;;;5.07;4.03;;;;;;;2.87;55.48;100477.97;10151564;28;20075;-59
2022/04/03 01:59:54;;;;;;;5.03;3.72;;;;;;;2.79;55.19;100479.19;10151017;28;20510;-58
2022/04/03 02:04:55;;;;;;;4.40;4.00;;;;;;;2.89;54.73;100476.97;10145336;28;20048;-59
2022/04/03 02:09:57;;;;;;;5.18;3.28;;;;;;;2.75;54.57;100474.97;10153017;28;20055;-58
2022/04/03 02:14:58;;;;;;;3.67;3.38;;;;;;;2.77;54.37;100483.63;10137856;28;20814;-58
2022/04/03 02:20:00;;;;;;;4.15;3.50;;;;;;;2.70;53.69;100482.19;10154625;28;20048;-58
2022/04/03 02:25:04;;;;;;;4.47;3.40;;;;;;;2.63;53.65;100475.53;10161050;28;20494;-58
2022/04/03 02:30:09;;;;;;;6.50;3.50;;;;;;;2.62;52.65;100484.31;10142440;28;20075;-58
2022/04/03 02:35:11;;;;;;;;;;;;;;;2.59;52.79;100494.97;10137714;28;20540;-58
2022/04/03 02:40:16;;;;;;;3.90;3.35;;;;;;;2.56;52.93;100489.84;10137937;28;20014;-59
2022/04/03 02:45:18;;;;;;;4.03;3.30;;;;;;;2.45;52.45;100493.78;10153575;28;20110;-59
2022/04/03 02:50:21;;;;;;;5.55;3.65;;;;;;;1.96;52.90;100400.47;10136551;28;20075;-58
2022/04/03 02:55:24;;;;;;;4.13;3.40;;;;;;;2.43;52.61;100500.00;10142881;28;20052;-58
2022/04/03 03:00:26;;;;;;;3.85;3.30;;;;;;;2.42;52.65;100499.16;10134236;28;20143;-58
2022/04/03 03:05:28;;;;;;;3.28;2.97;;;;;;;2.32;52.58;100486.50;10142436;28;20126;-58
2022/04/03 03:10:29;;;;;;;3.67;3.10;;;;;;;2.28;52.61;100486.63;10140332;28;20059;-58
2022/04/03 03:15:31;;;;;;;3.92;3.00;;;;;;;2.28;52.53;100491.88;10143846;28;20079;-57
2022/04/03 03:20:33;;;;;;;3.22;2.88;;;;;;;2.10;52.40;100467.25;10139611;28;20043;-58
2022/04/03 03:25:34;;;;;;;4.05;3.65;;;;;;;2.10;53.18;100490.88;10143251;28;20900;-57
2022/04/03 03:30:36;;;;;;;3.40;3.10;;;;;;;2.09;53.13;100483.91;10145309;28;20131;-58
2022/04/03 03:35:37;;;;;;;5.07;3.40;;;;;;;2.20;52.38;100495.75;10148856;28;20146;-58
2022/04/03 03:40:39;;;;;;;3.28;2.58;;;;;;;2.21;52.73;100502.72;10162150;28;20174;-58
2022/04/03 03:45:41;;;;;;;4.55;3.28;;;;;;;2.07;51.91;100493.63;10148119;28;20200;-57
2022/04/03 03:50:42;;;;;;;3.25;2.95;;;;;;;2.08;52.07;100505.81;10144083;28;20055;-58
2022/04/03 03:55:44;;;;;;;6.25;2.83;;;;;;;1.89;52.50;100510.13;10143940;28;20129;-57
2022/04/03 04:00:46;;;;;;;3.25;2.53;;;;;;;1.76;52.93;100517.66;10150244;28;20697;-57
2022/04/03 04:05:47;;;;;;;6.53;3.10;;;;;;;1.84;52.25;100522.59;10152026;28;20064;-58
2022/04/03 04:10:48;;;;;;;2.25;2.05;;;;;;;1.70;52.11;100508.25;10147559;28;20056;-57
2022/04/03 04:15:50;;;;;;;3.30;2.47;;;;;;;1.79;51.90;100529.78;10145634;28;20638;-58
2022/04/03 04:20:53;;;;;;;3.88;2.63;;;;;;;1.54;52.16;100536.00;10144939;28;20099;-58
2022/04/03 04:25:54;;;;;;;3.67;2.08;;;;;;;1.38;51.80;100533.97;10143808;28;20150;-57
2022/04/03 04:30:57;;;;;;;2.90;2.13;;;;;;;1.23;52.61;100516.16;10140602;28;20151;-59
2022/04/03 04:35:59;;;;;;;2.58;2.20;;;;;;;1.34;52.30;100547.25;10160828;28;20220;-60
2022/04/03 04:41:00;;;;;;;3.15;2.40;;;;;;;1.37;52.25;100548.00;10142237;28;20553;-59
2022/04/03 04:46:02;;;;;;;2.22;1.92;;;;;;;1.54;51.21;100551.75;10147246;28;20060;-59
2022/04/03 04:51:04;;;;;;;4.15;2.33;;;;;;;1.17;52.35;100563.59;10143511;28;20112;-60
2022/04/03 04:56:05;;;;;;;2.63;2.13;;;;;;;0.87;52.83;100546.31;10147033;28;20115;-60
2022/04/03 05:01:06;;;;;;;3.00;2.10;;;;;;;1.21;51.24;100552.09;10145901;28;20166;-61
2022/04/03 05:06:12;;;;;;;3.35;1.95;;;;;;;1.30;51.01;100577.97;10151336;28;20084;-60
2022/04/03 05:11:14;;;;;;;3.40;2.35;;;;;;;1.28;51.17;100571.94;10141718;28;20126;-60
2022/04/03 05:16:15;;;;;;;3.75;2.20;;;;;;;1.32;51.27;100581.41;10161785;28;20557;-60
2022/04/03 05:21:17;;;;;;;2.15;1.77;;;;;;;1.26;50.39;100571.13;10145511;28;20059;-59
2022/04/03 05:26:19;;;;;;;2.75;1.50;;;;;;;1.31;50.19;100584.94;10141794;28;20147;-60
2022/04/03 05:31:20;;;;;;;2.88;1.90;;;;;;;1.28;49.88;100579.81;10130753;28;20047;-59
2022/04/03 05:36:22;;;;;;;3.08;2.00;;;;;;;1.29;49.15;100586.78;10126828;28;20142;-60
2022/04/03 05:41:24;;;;;;;2.17;1.98;;;;;;;1.51;48.98;100604.34;10119031;28;20230;-58
2022/04/03 05:46:29;;;;;;;3.50;1.75;;;;;;;1.66;48.47;100611.63;10129727;28;20054;-59
2022/04/03 05:51:31;;;;;;;3.25;2.25;;;;;;;1.87;47.42;100623.06;10119926;28;20074;-59
2022/04/03 05:56:32;;;;;;;2.10;1.50;;;;;;;1.83;47.31;100620.63;10116743;28;20774;-58
2022/04/03 06:01:34;;;;;;;2.65;1.60;;;;;;;1.65;47.94;100622.19;10119453;28;20580;-58
2022/04/03 06:06:35;;;;;;;2.60;1.80;;;;;;;2.14;46.83;100629.94;10119284;28;20048;-57
2022/04/03 06:11:37;;;;;;;2.83;2.05;;;;;;;2.22;46.90;100641.00;10117382;28;20212;-59
2022/04/03 06:16:38;;;;;;;2.25;1.70;;;;;;;2.47;46.43;100628.56;10129410;28;20139;-59
2022/04/03 06:21:40;;;;;;;5.50;3.25;;;;;;;2.65;45.68;100649.78;10116516;28;20062;-59
2022/04/03 06:26:41;;;;;;;2.15;1.52;;;;;;;2.82;45.16;100642.06;10116524;28;20250;-59
2022/04/03 06:31:42;;;;;;;1.98;1.40;;;;;;;2.89;44.42;100652.31;10113730;28;20064;-59
2022/04/03 06:36:44;;;;;;;2.15;1.48;;;;;;;2.84;45.13;100644.63;10112290;28;20162;-59
2022/04/03 06:41:45;;;;;;;2.65;1.85;;;;;;;2.83;45.45;100662.16;10129926;28;20111;-59
2022/04/03 06:46:47;;;;;;;3.15;1.80;;;;;;;3.00;44.43;100663.22;10117068;28;20139;-59
2022/04/03 06:51:48;;;;;;;2.53;1.80;;;;;;;2.96;44.48;100651.13;10116411;28;20052;-59
2022/04/03 06:56:54;;;;;;;2.33;1.50;;;;;;;3.31;43.63;100659.28;10116057;28;20139;-58
2022/04/03 07:01:56;;;;;;;4.30;1.75;;;;;;;3.41;43.44;100670.25;10138835;28;20443;-59
2022/04/03 07:06:58;;;;;;;2.70;1.52;;;;;;;3.26;43.55;100677.03;10120945;28;20145;-58
2022/04/03 07:11:59;;;;;;;2.40;1.20;;;;;;;2.97;44.21;100685.25;10122028;28;20803;-58
2022/04/03 07:17:01;;;;;;;2.42;1.27;;;;;;;3.45;43.66;100677.09;10140632;28;20106;-61
2022/04/03 07:22:02;;;;;;;2.25;1.50;;;;;;;3.94;43.18;100681.94;10121623;28;21096;-58
2022/04/03 07:27:04;;;;;;;2.10;1.90;;;;;;;3.88;43.25;100688.31;10121192;28;20059;-61
2022/04/03 07:32:06;;;;;;;2.33;1.50;;;;;;;3.46;44.05;100690.19;10122501;28;20231;-60
2022/04/03 07:37:07;;;;;;;2.30;1.40;;;;;;;4.02;42.31;100708.75;10122405;28;20054;-60
2022/04/03 07:42:09;;;;;;;3.17;1.92;;;;;;;4.42;41.68;100699.00;10116908;28;20066;-58
2022/04/03 07:47:11;;;;;;;2.67;1.90;;;;;;;4.82;40.93;100723.44;10124313;28;20056;-62
2022/04/03 07:52:12;;;;;;;1.88;1.15;;;;;;;5.36;40.28;100725.16;10124253;28;20047;-61
2022/04/03 07:57:18;;;;;;;2.72;2.03;;;;;;;5.32;39.60;100725.31;10125001;28;20110;-59
2022/04/03 08:02:21;;;;;;;1.90;1.27;;;;;;;5.78;43.81;100718.56;10108481;28;20226;-59
2022/04/03 08:07:37;;;;;;;2.25;1.30;;;;;;;6.71;40.87;100723.22;10068873;28;20059;-58
2022/04/03 08:12:44;;;;;;;4.57;1.63;;;;;;;6.82;39.16;100724.41;10065588;28;20561;-57
2022/04/03 08:17:48;;;;;;;1.70;1.60;;;;;;;6.66;37.81;100727.91;10075683;28;20107;-57
2022/04/03 08:22:50;;;;;;;1.67;1.58;;;;;;;6.79;37.75;100724.56;10076377;28;20433;-57
2022/04/03 08:27:56;;;;;;;1.70;1.38;;;;;;;7.24;36.56;100733.44;10074559;28;20064;-57
2022/04/03 08:33:01;;;;;;;1.83;1.25;;;;;;;7.52;34.05;100737.06;10079220;28;20505;-60
2022/04/03 08:38:10;;;;;;;1.65;1.33;;;;;;;7.72;34.90;100742.03;10054802;28;20266;-60
2022/04/03 08:43:16;;;;;;;1.60;1.30;;;;;;;8.09;34.04;100749.50;10052968;28;20091;-60
2022/04/03 08:48:22;;;;;;;3.10;0.95;;;;;;;8.41;32.64;100755.44;10055075;28;20450;-61
2022/04/03 08:53:26;;;;;;;2.28;1.00;;;;;;;8.57;31.68;100752.72;10103682;28;20055;-61
2022/04/03 08:58:28;;;;;;;2.33;0.90;;;;;;;8.70;31.97;100752.75;10082313;28;20182;-60
2022/04/03 09:03:36;;;;;;;1.55;0.90;;;;;;;9.11;31.01;100751.88;10063147;28;20210;-59
2022/04/03 09:08:48;;;;;;;5.00;1.83;;;;;;;9.36;30.04;100752.88;10087694;28;20114;-59
2022/04/03 09:13:51;;;;;;;2.30;1.33;;;;;;;9.78;31.04;100756.19;10060656;28;20063;-58
2022/04/03 09:18:54;;;;;;;2.60;1.55;;;;;;;9.94;30.45;100755.13;10094500;28;20413;-59
2022/04/03 09:24:06;;;;;;;3.90;1.23;;;;;;;10.14;29.03;100751.94;10097200;28;20051;-59
2022/04/03 09:29:17;;;;;;;2.33;1.13;;;;;;;10.59;27.17;100751.44;10098583;28;20465;-59
2022/04/03 09:34:21;;;;;;;1.63;0.90;;;;;;;10.61;27.39;100746.84;10063126;28;20058;-59
2022/04/03 09:39:25;;;;;;;2.25;1.13;;;;;;;10.98;25.93;100733.50;10031894;28;20575;-61
2022/04/03 09:44:29;;;;;;;2.65;1.33;;;;;;;10.76;25.63;100755.53;10058561;28;20135;-59
2022/04/03 09:49:35;;;;;;;1.58;1.00;;;;;;;11.19;25.07;100747.00;10056065;28;20079;-59
2022/04/03 09:54:45;;;;;;;1.65;0.95;;;;;;;11.92;23.75;100761.00;10052722;28;20079;-61
2022/04/03 09:59:54;;;;;;;2.65;0.90;;;;;;;12.60;23.17;100744.13;10080805;28;21060;-60
2022/04/03 10:05:07;;;;;;;1.73;1.30;;;;;;;13.15;21.75;100728.03;10044582;28;20896;-59
2022/04/03 10:10:12;;;;;;;1.08;0.98;;;;;;;13.05;21.62;100723.47;10069423;28;20047;-59
2022/04/03 10:15:15;;;;;;;1.38;1.27;;;;;;;14.37;21.74;100728.31;10051192;28;21091;-58
2022/04/03 10:20:17;;;;;;;1.40;0.82;;;;;;;17.10;19.71;100716.03;10063122;28;21690;-58
2022/04/03 10:25:27;;;;;;;1.42;1.30;;;;;;;18.32;17.93;100706.19;10065333;28;20059;-59
2022/04/03 10:30:43;;;;;;;1.50;1.20;;;;;;;21.45;14.63;100706.19;10034017;28;20055;-58
2022/04/03 10:35:49;;;;;;;1.95;1.30;;;;;;;18.39;17.08;100718.03;10056238;28;20526;-62
2022/04/03 10:40:59;;;;;;;1.50;1.15;;;;;;;18.34;17.91;100717.66;10080796;28;20059;-59
2022/04/03 10:46:12;;;;;;;3.08;1.27;;;;;;;19.02;17.06;100708.56;10028423;28;20854;-59
2022/04/03 10:51:30;;;;;;;1.83;1.02;;;;;;;22.93;14.08;100704.38;10053206;28;20058;-60
2022/04/03 10:56:41;;;;;;;1.33;0.90;;;;;;;26.57;11.78;100709.50;10045536;28;20192;-60
2022/04/03 11:01:45;;;;;;;1.25;0.95;;;;;;;20.95;14.39;100689.53;10061932;28;20060;-59
2022/04/03 11:06:50;;;;;;;2.25;1.27;;;;;;;18.05;16.91;100678.47;10055962;28;22185;-59
2022/04/03 11:11:55;;;;;;;1.17;0.90;;;;;;;15.43;19.34;100691.81;10083844;28;20204;-59
2022/04/03 11:17:12;;;;;;;2.75;1.35;;;;;;;14.33;20.71;100685.72;10089989;28;20454;-58
2022/04/03 11:22:18;;;;;;;1.85;1.05;;;;;;;12.51;22.93;100690.50;10042889;28;20133;-58
2022/04/03 11:27:26;;;;;;;2.75;1.70;;;;;;;18.04;17.42;100684.03;10081874;28;20123;-59
2022/04/03 11:32:34;;;;;;;1.40;1.08;;;;;;;14.75;20.41;100679.31;10032632;28;20448;-59
2022/04/03 11:37:47;;;;;;;2.08;1.88;;;;;;;15.31;20.57;100687.59;9982366;28;20126;-60
2022/04/03 11:43:18;;;;;;;1.40;1.20;;;;;;;20.12;15.10;100670.22;10016620;28;20187;-59
2022/04/03 11:48:30;;;;;;;1.70;1.17;;;;;;;26.98;11.34;100660.94;10051836;28;20745;-59
2022/04/03 11:53:45;;;;;;;2.90;1.33;;;;;;;29.77;8.90;100626.38;10039914;28;20058;-59
2022/04/03 11:58:56;;;;;;;1.30;1.00;;;;;;;31.45;8.05;100646.22;10060576;28;20146;-59
2022/04/03 12:04:12;;;;;;;1.27;1.05;;;;;;;26.19;10.47;100638.53;10047106;28;20063;-59
2022/04/03 12:09:21;;;;;;;1.63;1.00;;;;;;;28.67;9.51;100613.16;10048932;28;20058;-58
2022/04/03 12:14:34;;;;;;;1.58;1.48;;;;;;;32.05;7.71;100636.28;10071720;28;20058;-59
2022/04/03 12:20:15;;;;;;;3.53;1.10;;;;;;;33.58;7.11;100621.31;10035656;28;20328;-59
2022/04/03 12:25:18;;;;;;;1.45;1.23;;;;;;;30.91;8.08;100619.25;10092408;28;20435;-59
2022/04/03 12:30:24;;;;;;;1.70;1.10;;;;;;;30.80;8.52;100607.22;10122504;28;20051;-59
2022/04/03 12:35:25;;;;;;;0.80;0.80;;;;;;;32.58;7.36;100602.69;10101556;28;20054;-62
2022/04/03 12:40:30;;;;;;;2.40;1.02;;;;;;;33.25;7.01;100594.94;10087386;28;20075;-60
2022/04/03 12:45:42;;;;;;;2.30;1.00;;;;;;;32.24;6.90;100595.47;10086634;28;20059;-59
2022/04/03 12:50:52;;;;;;;1.15;0.90;;;;;;;27.97;9.17;100589.09;10113746;28;20490;-59
2022/04/03 12:55:56;;;;;;;1.45;1.25;;;;;;;27.57;9.55;100603.25;10103373;28;20277;-59
2022/04/03 13:01:07;;;;;;;1.42;0.80;;;;;;;27.81;9.02;100577.69;10093201;28;20630;-59
2022/04/03 13:06:30;;;;;;;1.75;1.08;;;;;;;24.03;11.23;100578.91;10057261;28;20052;-59
2022/04/03 13:11:48;;;;;;;1.38;0.82;;;;;;;21.36;13.29;100571.91;10076951;28;20055;-59
2022/04/03 13:16:56;;;;;;;1.15;1.00;;;;;;;19.85;14.34;100563.47;10086442;28;20235;-60
2022/04/03 13:22:01;;;;;;;1.50;1.13;;;;;;;19.04;15.32;100570.81;10105777;28;20059;-59
2022/04/03 13:27:14;;;;;;;1.23;1.08;;;;;;;18.41;16.07;100570.47;10089049;28;20051;-59
2022/04/03 13:32:19;;;;;;;1.35;1.02;;;;;;;18.06;16.25;100550.03;10077569;28;20478;-60
2022/04/03 13:37:24;;;;;;;1.67;0.95;;;;;;;17.46;16.92;100546.47;10068899;28;20048;-59
2022/04/03 13:42:28;;;;;;;1.48;0.98;;;;;;;16.54;17.58;100554.91;10081012;28;20062;-60
2022/04/03 13:47:31;;;;;;;2.22;1.40;;;;;;;16.08;18.48;100538.88;10128817;23;20133;-65
2022/04/03 13:52:35;;;;;;;3.05;1.55;;;;;;;14.89;19.47;100535.16;10219046;28;20611;-63
2022/04/03 13:57:36;;;;;;;1.58;1.40;;;;;;;15.86;19.00;100540.13;10214766;28;20058;-63
2022/04/03 14:02:37;;;;;;;1.92;1.10;;;;;;;15.88;18.34;100531.94;10212898;28;20051;-62
2022/04/03 14:07:39;;;;;;;1.58;1.35;;;;;;;14.99;19.01;100536.00;10208676;28;21295;-64
2022/04/03 14:12:40;;;;;;;1.88;1.20;;;;;;;13.44;21.47;100515.19;10209880;28;20059;-62
2022/04/03 14:17:42;;;;;;;2.55;1.40;;;;;;;13.84;20.64;100513.47;10209378;28;20073;-62
2022/04/03 14:22:43;;;;;;;1.88;1.15;;;;;;;14.06;20.58;100507.00;10209978;28;20054;-62
2022/04/03 14:27:45;;;;;;;1.83;1.52;;;;;;;12.97;21.51;100512.16;10208969;28;20167;-63
2022/04/03 14:32:46;;;;;;;1.92;1.63;;;;;;;12.51;22.72;100514.25;10206249;28;20597;-63
2022/04/03 14:37:48;;;;;;;2.55;1.98;;;;;;;12.64;22.57;100522.09;10211653;28;20047;-63
2022/04/03 14:42:51;;;;;;;2.17;1.52;;;;;;;12.99;22.01;100526.22;10209973;28;20284;-62
2022/04/03 14:47:53;;;;;;;2.38;2.17;;;;;;;12.38;22.03;100481.56;10209980;28;20061;-63
2022/04/03 14:52:54;;;;;;;2.28;1.60;;;;;;;12.56;22.23;100519.22;10210261;28;20109;-62
2022/04/03 14:57:56;;;;;;;3.33;1.77;;;;;;;12.07;23.03;100515.31;10211203;28;20473;-62
2022/04/03 15:02:57;;;;;;;1.60;1.23;;;;;;;11.31;23.05;100506.22;10211059;28;20061;-62
2022/04/03 15:07:59;;;;;;;1.25;1.10;;;;;;;11.01;23.28;100506.84;10209920;28;20050;-62
2022/04/03 15:13:00;;;;;;;2.45;1.52;;;;;;;10.52;24.11;100511.47;10216460;28;20741;-62
2022/04/03 15:18:02;;;;;;;1.75;1.65;;;;;;;10.68;24.94;100516.47;10212975;28;20133;-62
2022/04/03 15:23:10;;;;;;;2.03;1.27;;;;;;;10.79;24.01;100513.84;10224675;28;20062;-62
2022/04/03 15:28:12;;;;;;;2.92;1.40;;;;;;;10.92;24.00;100524.38;10219689;28;20650;-62
2022/04/03 15:33:13;;;;;;;2.15;1.50;;;;;;;10.57;24.42;100525.28;10217022;28;20787;-62
2022/04/03 15:38:14;;;;;;;2.65;1.88;;;;;;;10.56;24.77;100504.94;10217307;28;20074;-62
2022/04/03 15:43:16;;;;;;;2.38;1.52;;;;;;;10.83;24.73;100530.41;10214047;28;20581;-62
2022/04/03 15:48:19;;;;;;;2.72;1.80;;;;;;;10.03;24.76;100515.13;10215858;28;20050;-62
2022/04/03 15:53:21;;;;;;;1.77;1.67;;;;;;;9.96;25.39;100519.22;10226718;28;20086;-62
2022/04/03 15:58:23;;;;;;;2.00;1.20;;;;;;;9.95;26.23;100530.81;10215680;28;20047;-66
2022/04/03 16:03:24;;;;;;;2.95;1.50;;;;;;;9.98;26.93;100523.44;10213025;28;20051;-63
2022/04/03 16:08:29;;;;;;;;;;;;;;;10.45;28.01;100536.88;10216792;28;20058;-65
2022/04/03 16:13:31;;;;;;;1.67;1.45;;;;;;;10.55;27.82;100537.88;10216444;28;19937;-65
2022/04/03 16:18:35;;;;;;;3.13;1.65;;;;;;;10.53;26.59;100515.81;10216626;28;20058;-63
2022/04/03 16:23:37;;;;;;;1.88;1.70;;;;;;;9.64;27.84;100509.13;10215540;28;20145;-63
2022/04/03 16:28:38;;;;;;;2.85;1.60;;;;;;;9.85;27.49;100531.47;10219073;28;20059;-61
2022/04/03 16:33:40;;;;;;;2.20;1.58;;;;;;;9.19;28.40;100534.38;10220278;28;20062;-64
2022/04/03 16:38:41;;;;;;;2.50;2.15;;;;;;;9.32;28.81;100517.56;10216482;28;20720;-64
2022/04/03 16:43:42;;;;;;;1.27;1.17;;;;;;;9.57;27.92;100531.78;10212235;28;20066;-65
2022/04/03 16:48:44;;;;;;;4.13;1.80;;;;;;;9.46;29.00;100532.56;10216443;28;20058;-62
2022/04/03 16:53:46;;;;;;;2.40;1.55;;;;;;;9.59;28.92;100533.34;10214037;28;20058;-62
2022/04/03 16:58:47;;;;;;;2.10;1.35;;;;;;;9.53;29.55;100524.03;10210328;28;20652;-63
2022/04/03 17:03:49;;;;;;;1.70;1.42;;;;;;;9.38;28.85;100525.09;10203998;28;20740;-64
2022/04/03 17:08:50;;;;;;;2.17;1.58;;;;;;;9.40;28.63;100528.53;10206494;28;20197;-63
2022/04/03 17:13:52;;;;;;;3.00;1.48;;;;;;;9.46;28.89;100535.22;10211332;28;20714;-62
2022/04/03 17:18:54;;;;;;;2.58;1.30;;;;;;;9.37;29.46;100539.38;10210410;28;20047;-61
2022/04/03 17:23:56;;;;;;;2.80;1.60;;;;;;;8.83;29.69;100543.97;10205644;28;20055;-61
2022/04/03 17:28:58;;;;;;;2.00;1.70;;;;;;;8.78;29.70;100547.88;10209790;28;20042;-63
2022/04/03 17:33:59;;;;;;;2.30;1.60;;;;;;;8.69;30.16;100533.41;10208197;28;20058;-61
2022/04/03 17:39:08;;;;;;;1.73;1.63;;;;;;;8.70;30.43;100551.06;10206256;28;20558;-62
2022/04/03 17:44:10;;;;;;;1.50;1.35;;;;;;;8.61;30.95;100555.19;10204802;28;20059;-60
2022/04/03 17:49:11;;;;;;;1.98;1.70;;;;;;;8.49;31.47;100548.88;10206168;28;20418;-65
2022/04/03 17:54:17;;;;;;;2.40;2.13;;;;;;;8.38;32.00;100564.66;10203640;28;20062;-64
2022/04/03 17:59:19;;;;;;;3.13;2.92;;;;;;;8.20;31.90;100547.31;10206789;28;20106;-65
2022/04/03 18:04:20;;;;;;;3.45;1.60;;;;;;;8.17;32.39;100553.66;10206994;28;20475;-65
2022/04/03 18:09:22;;;;;;;2.05;1.85;;;;;;;8.09;32.91;100551.50;10205753;28;20520;-63
2022/04/03 18:14:23;;;;;;;2.88;2.25;;;;;;;7.98;33.00;100554.00;10204898;28;20055;-62
2022/04/03 18:19:25;;;;;;;2.28;1.65;;;;;;;7.83;33.20;100555.00;10203595;28;20058;-63
2022/04/03 18:24:28;;;;;;;3.10;2.40;;;;;;;7.64;33.62;100537.63;10203623;28;20050;-62
2022/04/03 18:29:30;;;;;;;3.10;2.30;;;;;;;7.78;33.58;100558.78;10202721;28;20066;-65
2022/04/03 18:34:32;;;;;;;3.38;2.00;;;;;;;7.72;34.09;100559.19;10204847;28;21026;-65
2022/04/03 18:39:34;;;;;;;2.38;1.85;;;;;;;7.74;33.96;100567.88;10205110;28;20717;-63
2022/04/03 18:44:36;;;;;;;4.53;2.63;;;;;;;7.65;36.43;100557.88;10204718;28;20196;-62
2022/04/03 18:49:38;;;;;;;2.60;2.40;;;;;;;7.63;35.42;100569.50;10206286;28;20059;-61
2022/04/03 18:54:40;;;;;;;8.15;6.45;;;;;;;7.19;35.74;100573.97;10208652;28;20746;-63
2022/04/03 18:59:41;;;;;;;4.05;2.83;;;;;;;7.19;36.51;100581.91;10204645;28;20054;-64
2022/04/03 19:04:44;;;;;;;3.30;3.00;;;;;;;7.04;35.91;100573.97;10205699;28;20070;-65
2022/04/03 19:09:45;;;;;;;3.85;3.20;;;;;;;6.96;36.31;100568.28;10205349;28;20059;-65
2022/04/03 19:14:47;;;;;;;3.65;2.90;;;;;;;6.89;36.07;100567.81;10213199;28;22111;-60
2022/04/03 19:19:48;;;;;;;3.60;2.53;;;;;;;6.75;37.07;100580.16;10208105;28;20807;-63
2022/04/03 19:24:49;;;;;;;3.35;2.90;;;;;;;6.71;37.45;100593.56;10209942;28;20058;-63
2022/04/03 19:29:53;;;;;;;3.83;3.03;;;;;;;6.60;37.45;100595.97;10204001;28;20070;-63
2022/04/03 19:34:55;;;;;;;4.22;3.75;;;;;;;6.65;38.16;100614.22;10205993;28;20272;-63
2022/04/03 19:39:56;;;;;;;3.65;3.22;;;;;;;6.72;37.67;100610.28;10206263;28;20063;-63
2022/04/03 19:44:58;;;;;;;3.67;2.88;;;;;;;6.84;37.66;100598.97;10206782;28;20043;-63
2022/04/03 19:50:00;;;;;;;4.97;3.28;;;;;;;6.80;37.78;100599.25;10208281;28;20213;-63
2022/04/03 19:55:02;;;;;;;3.75;3.35;;;;;;;6.90;38.08;100603.06;10200886;28;20043;-64
2022/04/03 20:00:04;;;;;;;3.83;2.92;;;;;;;6.95;37.30;100608.94;10201749;28;20166;-64
2022/04/03 20:05:06;;;;;;;3.55;2.85;;;;;;;6.76;38.47;100592.47;10204407;28;20059;-65
2022/04/03 20:10:08;;;;;;;4.32;3.40;;;;;;;6.82;38.57;100610.63;10214744;28;20047;-63
2022/04/03 20:15:11;;;;;;;4.35;3.17;;;;;;;6.77;38.57;100608.25;10214902;28;20059;-62
2022/04/03 20:20:12;;;;;;;4.82;3.38;;;;;;;6.70;38.96;100615.66;10218407;28;20058;-62
2022/04/03 20:25:15;;;;;;;3.50;2.85;;;;;;;6.59;39.20;100610.16;10212520;28;20082;-65
2022/04/03 20:30:16;;;;;;;5.85;3.65;;;;;;;6.53;39.95;100605.22;10209797;28;20091;-70
2022/04/03 20:35:18;;;;;;;3.88;3.50;;;;;;;6.70;40.48;100618.31;10212296;28;20074;-64
2022/04/03 20:40:19;;;;;;;5.13;4.22;;;;;;;6.58;39.92;100608.47;10212714;28;20050;-65
2022/04/03 20:45:21;;;;;;;3.47;3.17;;;;;;;6.58;41.27;100618.19;10212932;28;20061;-64
2022/04/03 20:50:23;;;;;;;3.72;3.38;;;;;;;6.76;40.08;100626.84;10209713;28;20479;-63
2022/04/03 20:55:25;;;;;;;4.18;3.78;;;;;;;6.59;40.88;100620.75;10209286;28;20082;-63
2022/04/03 21:00:27;;;;;;;5.47;4.03;;;;;;;6.46;40.90;100630.34;10211291;28;20055;-61
2022/04/03 21:05:28;;;;;;;3.85;3.40;;;;;;;6.34;40.92;100611.56;10207896;28;20702;-61
2022/04/03 21:10:30;;;;;;;5.03;4.53;;;;;;;6.40;41.88;100614.81;10214100;28;20646;-61
2022/04/03 21:15:31;;;;;;;6.15;4.65;;;;;;;6.32;41.83;100613.47;10207975;28;20058;-62
2022/04/03 21:20:33;;;;;;;5.35;4.90;;;;;;;6.23;41.43;100600.78;10211648;28;20066;-65
2022/04/03 21:25:35;;;;;;;5.50;4.90;;;;;;;6.22;41.68;100588.47;10211198;28;20051;-65
2022/04/03 21:30:36;;;;;;;5.10;4.43;;;;;;;6.24;41.94;100593.69;10222437;28;20073;-64
2022/04/03 21:35:39;;;;;;;6.40;5.65;;;;;;;6.09;42.48;100595.41;10214038;28;20057;-64
2022/04/03 21:40:41;;;;;;;6.25;5.25;;;;;;;6.12;43.55;100589.94;10215356;28;20069;-67
2022/04/03 21:45:43;;;;;;;7.55;5.82;;;;;;;6.14;42.76;100585.41;10231140;28;20499;-62
2022/04/03 21:50:44;;;;;;;5.97;5.38;;;;;;;6.00;42.74;100572.97;10208502;28;20156;-65
2022/04/03 21:55:46;;;;;;;5.68;5.20;;;;;;;6.00;44.00;100580.91;10216638;28;20046;-64
2022/04/03 22:00:59;;;;;;;6.22;5.22;;;;;;;6.06;43.05;100590.28;10226107;28;20054;-64
2022/04/03 22:06:01;;;;;;;5.75;5.25;;;;;;;5.88;43.04;100566.56;10235810;28;20051;-63
2022/04/03 22:11:03;;;;;;;7.53;5.80;;;;;;;5.89;43.55;100578.84;10230538;28;20410;-64
2022/04/03 22:16:06;;;;;;;5.85;5.15;;;;;;;5.95;43.71;100589.06;10232996;28;20533;-63
2022/04/03 22:21:07;;;;;;;6.30;5.80;;;;;;;5.91;44.30;100582.22;10231610;28;20054;-65
2022/04/03 22:26:09;;;;;;;6.43;5.85;;;;;;;5.91;44.14;100597.25;10232762;28;20050;-63
2022/04/03 22:31:10;;;;;;;6.68;6.07;;;;;;;5.80;44.23;100592.56;10240159;28;20051;-63
2022/04/03 22:36:12;;;;;;;7.35;6.63;;;;;;;5.77;44.24;100584.81;10229375;28;20051;-63
2022/04/03 22:41:13;;;;;;;7.15;6.47;;;;;;;5.76;44.30;100576.00;10228911;28;20051;-64
2022/04/03 22:46:15;;;;;;;7.65;6.95;;;;;;;5.68;45.98;100569.47;10230916;28;20057;-63
2022/04/03 22:51:17;;;;;;;7.15;6.28;;;;;;;5.63;44.72;100567.06;10243520;28;20070;-64
2022/04/03 22:56:19;;;;;;;7.55;6.93;;;;;;;5.57;44.86;100570.91;10242025;28;20055;-64
2022/04/03 23:01:20;;;;;;;8.15;7.55;;;;;;;5.64;45.00;100580.19;10228398;28;20173;-64
2022/04/03 23:06:22;;;;;;;8.32;7.63;;;;;;;5.58;45.50;100579.66;10234130;28;20047;-64
2022/04/03 23:11:24;;;;;;;8.73;8.02;;;;;;;5.44;45.68;100580.44;10235140;28;20430;-64
2022/04/03 23:16:25;;;;;;;8.80;7.95;;;;;;;5.41;46.00;100572.66;10228669;28;20441;-63
2022/04/03 23:21:27;;;;;;;8.25;7.55;;;;;;;5.53;45.69;100579.91;10229328;28;20050;-63
2022/04/03 23:26:28;;;;;;;8.15;7.53;;;;;;;5.42;45.61;100562.03;10230124;28;20130;-64
2022/04/03 23:31:31;;;;;;;8.52;7.72;;;;;;;5.43;45.79;100576.06;10226778;28;20130;-64